Mc Cook Ben Nelson Regional Airport Mc Cook US
ICAO: KMCK
IATA: MCK
Category: Medium
Scheduled Services: No

Elevation: 2583 ft
TransAlt. 18000 ft.

Airport Communications:
ASOS:119.025
DENVER CNTR:118.475
COLUMBUS RDO:122.6
CTAF/UNICOM:122.8

KMCK Zoom In..

Runways:

(A) RW 04 length 4000 ft width 75 ft
---- / hdg 38

(B) RW 12 length 6450 ft width 100 ft
ILS 110.95 / hdg 123

(C) RW 17 length 1350 ft width 160 ft
---- / hdg 173

(D) RW 22 length 4000 ft width 75 ft
---- / hdg 218

(E) RW 30 length 6450 ft width 100 ft
---- / hdg 303

(F) RW 35 length 1350 ft width 160 ft
---- / hdg 353

Location; KMCK
Day. 22 / Time. 04.12 Zulu
* Altimeter: 29.65
* Temperature: -01° c. -30.2°f.
* Wind from: 350° Speed 22 kn with Gusts up to 32 kn.
Dewpoint: -01° c.
Visibility: 3/4 Statute Miles.
Clouds: Scattered 900 ft.
Clouds: Overcast 1400 ft.
Conditions: Light Snow.Conditions: Mist.

KMCK 220412Z AUTO 35022G32KT 3/4SM -SN BR SCT009 OVC014 M01/M01 A2965 RMK AO2 PK WND 35032/0408 P0000 T10111011


Wind From 350°
Speed 22 kn.

jpsM music video
CHECK IT OUT

jpsM - It Moves..

 
jpsmedia.com for Web Design  worldairports.se 2018   terms of use